Time;durP1;ratioP1;P1;durP2;ratioP2;P2;SDS_P1;SDS_P2;PMS_P1;PMS_P2;Temp;Humidity;BMP_temperature;BMP_pressure;BME280_temperature;BME280_humidity;BME280_pressure;Samples;Min_cycle;Max_cycle;Signal;HPM_P1;HPM_P2
2022/04/17 00:01:28;;;;;;;;;;;;;;;17.07;42.00;100610.31;5074118;28;1895;-54
2022/04/17 00:03:54;;;;;;;;;;;;;;;17.27;43.14;100606.66;5076020;28;918;-55
2022/04/17 00:06:19;;;;;;;;;;;;;;;17.39;44.04;100611.00;5076134;28;821;-54
2022/04/17 00:08:45;;;;;;;;;;;;;;;17.55;44.58;100625.50;5076161;28;917;-55
2022/04/17 00:11:10;;;;;;;;;;;;;;;17.66;44.88;100620.75;5071189;28;773;-55
2022/04/17 00:13:36;;;;;;;;;;;;;;;17.68;45.40;100637.78;5076075;28;916;-54
2022/04/17 00:16:01;;;;;;;;;;;;;;;17.83;45.42;100634.13;5069250;28;986;-55
2022/04/17 00:18:27;;;;;;;;;;;;;;;17.85;45.63;100640.16;5076170;28;837;-55
2022/04/17 00:20:52;;;;;;;;;;;;;;;17.93;45.85;100647.81;5076009;28;1901;-55
2022/04/17 00:23:18;;;;;;;;;;;;;;;18.01;45.92;100643.66;5074392;28;901;-55
2022/04/17 00:25:43;;;;;;;;;;;;;;;18.01;46.13;100644.47;5076146;28;945;-55
2022/04/17 00:28:10;;;;;;;;;;;;;;;18.05;45.99;100656.53;5075588;28;948;-55
2022/04/17 00:30:35;;;;;;;;;;;;;;;18.10;46.04;100653.75;5074637;28;883;-54
2022/04/17 00:33:01;;;;;;;;;;;;;;;18.14;45.95;100643.00;5071307;28;1428;-55
2022/04/17 00:35:26;;;;;;;;;;;;;;;18.19;45.88;100639.38;5071590;28;805;-55
2022/04/17 00:37:52;;;;;;;;;;;;;;;18.23;46.03;100640.44;5075488;28;965;-56
2022/04/17 00:40:17;;;;;;;;;;;;;;;18.12;45.79;100624.03;5075879;28;1984;-55
2022/04/17 00:42:43;;;;;;;;;;;;;;;17.93;44.96;100625.81;5075713;28;814;-56
2022/04/17 00:45:09;;;;;;;;;;;;;;;17.74;43.67;100651.22;5072636;28;871;-55
2022/04/17 00:47:35;;;;;;;;;;;;;;;17.57;42.22;100645.25;5075677;28;809;-55
2022/04/17 00:50:00;;;;;;;;;;;;;;;17.33;41.28;100661.59;5069127;28;762;-55
2022/04/17 00:52:26;;;;;;;;;;;;;;;17.15;40.53;100663.84;5075444;28;831;-55
2022/04/17 00:54:52;;;;;;;;;;;;;;;17.01;39.96;100658.16;5075644;28;832;-55
2022/04/17 00:57:17;;;;;;;;;;;;;;;16.93;39.31;100669.72;5075467;28;828;-55
2022/04/17 00:59:43;;;;;;;;;;;;;;;16.88;39.59;100672.44;5075674;28;898;-55
2022/04/17 01:02:09;;;;;;;;;;;;;;;16.96;40.22;100684.78;5074903;28;1913;-55
2022/04/17 01:04:35;;;;;;;;;;;;;;;17.14;41.11;100686.13;5075388;28;862;-55
2022/04/17 01:07:02;;;;;;;;;;;;;;;17.26;42.39;100684.72;5075328;28;762;-55
2022/04/17 01:09:27;;;;;;;;;;;;;;;17.43;43.25;100694.53;5075677;28;828;-56
2022/04/17 01:11:53;;;;;;;;;;;;;;;17.55;43.90;100696.97;5057142;28;1002;-56
2022/04/17 01:14:20;;;;;;;;;;;;;;;17.69;44.36;100699.94;5074943;28;790;-56
2022/04/17 01:16:46;;;;;;;;;;;;;;;17.70;44.56;100710.66;5052204;28;1451;-56
2022/04/17 01:19:11;;;;;;;;;;;;;;;17.74;44.52;100692.47;5077181;28;703;-55
2022/04/17 01:21:40;;;;;;;;;;;;;;;17.85;44.58;100695.16;5079001;28;1905;-55
2022/04/17 01:26:57;;;;;;;;;;;;;;;17.87;44.85;100665.44;5078382;28;1063;-55
2022/04/17 01:29:26;;;;;;;;;;;;;;;17.93;44.90;100667.91;5079059;28;830;-55
2022/04/17 01:31:52;;;;;;;;;;;;;;;18.00;45.06;100653.81;5074362;28;1281;-55
2022/04/17 01:34:18;;;;;;;;;;;;;;;18.02;45.03;100631.53;5078918;28;836;-55
2022/04/17 01:36:44;;;;;;;;;;;;;;;18.04;45.19;100602.63;5078671;28;854;-54
2022/04/17 01:39:09;;;;;;;;;;;;;;;18.18;44.97;100604.72;5073965;28;1411;-55
2022/04/17 01:41:35;;;;;;;;;;;;;;;18.21;45.23;100590.38;5077749;28;1918;-55
2022/04/17 01:44:00;;;;;;;;;;;;;;;18.27;45.31;100592.81;5078766;28;786;-54
2022/04/17 01:46:25;;;;;;;;;;;;;;;18.30;45.66;100580.41;5077355;28;738;-55
2022/04/17 01:48:51;;;;;;;;;;;;;;;18.30;45.68;100559.19;5078889;28;761;-55
2022/04/17 01:51:16;;;;;;;;;;;;;;;18.08;45.35;100562.41;5078761;28;815;-56
2022/04/17 01:53:42;;;;;;;;;;;;;;;18.01;44.24;100563.88;5077846;28;832;-55
2022/04/17 01:56:07;;;;;;;;;;;;;;;17.79;42.99;100576.94;5078398;28;754;-55
2022/04/17 01:58:32;;;;;;;;;;;;;;;17.55;42.03;100570.50;5078045;28;901;-55
2022/04/17 02:00:58;;;;;;;;;;;;;;;17.41;41.39;100581.31;5071487;28;2056;-55
2022/04/17 02:03:24;;;;;;;;;;;;;;;17.33;40.77;100584.66;5078688;28;843;-55
2022/04/17 02:05:49;;;;;;;;;;;;;;;17.17;40.44;100586.66;5073095;28;834;-55
2022/04/17 02:08:16;;;;;;;;;;;;;;;17.06;40.30;100589.44;5078261;28;830;-55
2022/04/17 02:10:41;;;;;;;;;;;;;;;16.99;39.66;100599.09;5078287;28;928;-55
2022/04/17 02:13:07;;;;;;;;;;;;;;;16.84;39.68;100613.66;5077941;28;841;-55
2022/04/17 02:15:33;;;;;;;;;;;;;;;16.88;40.23;100618.34;5072650;28;879;-57
2022/04/17 02:17:58;;;;;;;;;;;;;;;17.01;41.21;100618.84;5077062;28;1285;-54
2022/04/17 02:20:24;;;;;;;;;;;;;;;17.19;42.83;100631.16;5077834;28;1909;-55
2022/04/17 02:22:49;;;;;;;;;;;;;;;17.71;45.44;100615.22;5077620;28;829;-55
2022/04/17 02:25:14;;;;;;;;;;;;;;;18.19;46.58;100622.84;5077928;28;892;-55
2022/04/17 02:27:40;;;;;;;;;;;;;;;18.54;47.05;100620.91;5075692;28;1101;-56
2022/04/17 02:30:06;;;;;;;;;;;;;;;18.50;47.99;100622.59;5073753;28;738;-55
2022/04/17 02:32:31;;;;;;;;;;;;;;;17.49;49.85;100610.97;5077373;28;826;-56
2022/04/17 02:34:56;;;;;;;;;;;;;;;17.64;47.30;100626.50;5077803;28;869;-56
2022/04/17 02:37:22;;;;;;;;;;;;;;;17.53;45.60;100622.19;5077544;28;834;-56
2022/04/17 02:39:48;;;;;;;;;;;;;;;17.36;43.79;100622.56;5077662;28;746;-56
2022/04/17 02:42:13;;;;;;;;;;;;;;;17.16;42.29;100612.50;5077184;28;1905;-57
2022/04/17 02:44:38;;;;;;;;;;;;;;;16.98;41.11;100611.19;5077160;28;810;-56
2022/04/17 02:49:48;;;;;;;;;;;;;;;16.67;39.91;100631.28;5078045;28;760;-57
2022/04/17 02:52:14;;;;;;;;;;;;;;;16.65;39.64;100636.25;5077426;28;941;-57
2022/04/17 02:54:40;;;;;;;;;;;;;;;16.72;39.88;100639.50;5077346;28;805;-57
2022/04/17 02:57:05;;;;;;;;;;;;;;;16.69;40.29;100640.06;5076671;28;829;-56
2022/04/17 02:59:30;;;;;;;;;;;;;;;16.63;40.54;100643.91;5077247;28;797;-56
2022/04/17 03:07:23;;;;;;;;;;;;;;;17.04;43.79;100643.00;5076643;28;753;-56
2022/04/17 03:09:49;;;;;;;;;;;;;;;17.24;43.92;100659.44;5070674;28;850;-56
2022/04/17 03:12:14;;;;;;;;;;;;;;;17.23;44.28;100652.28;5077067;28;837;-55
2022/04/17 03:14:40;;;;;;;;;;;;;;;17.40;44.96;100657.47;5076755;28;890;-56
2022/04/17 03:17:06;;;;;;;;;;;;;;;17.67;46.34;100669.97;5071891;28;1092;-55
2022/04/17 03:19:31;;;;;;;;;;;;;;;18.03;47.57;100664.25;5076879;28;849;-55
2022/04/17 03:21:57;;;;;;;;;;;;;;;18.35;48.12;100676.66;5074727;28;1951;-56
2022/04/17 03:24:22;;;;;;;;;;;;;;;18.32;48.28;100666.25;5076705;28;970;-56
2022/04/17 03:26:48;;;;;;;;;;;;;;;18.10;47.54;100667.53;5076742;28;989;-56
2022/04/17 03:29:14;;;;;;;;;;;;;;;17.93;46.70;100683.59;5076486;28;788;-53
2022/04/17 03:31:39;;;;;;;;;;;;;;;17.71;45.29;100687.56;5074490;28;875;-56
2022/04/17 03:34:08;;;;;;;;;;;;;;;17.48;44.06;100674.47;5076227;28;935;-56
2022/04/17 03:36:42;;;;;;;;;;;;;;;17.34;42.70;100691.56;5076313;28;930;-57
2022/04/17 03:39:08;;;;;;;;;;;;;;;17.17;41.73;100708.38;5070417;28;818;-56
2022/04/17 03:41:34;;;;;;;;;;;;;;;16.93;41.15;100699.94;5075625;28;2016;-55
2022/04/17 03:44:02;;;;;;;;;;;;;;;16.91;40.73;100699.38;5069764;28;842;-59
2022/04/17 03:46:28;;;;;;;;;;;;;;;16.81;40.76;100705.66;5068370;28;863;-56
2022/04/17 03:48:53;;;;;;;;;;;;;;;16.84;40.57;100707.03;5075667;28;730;-56
2022/04/17 03:51:18;;;;;;;;;;;;;;;17.00;41.93;100702.38;5049806;28;1477;-54
2022/04/17 03:53:44;;;;;;;;;;;;;;;17.31;44.92;100694.88;5071076;28;1470;-55
2022/04/17 03:56:10;;;;;;;;;;;;;;;17.81;47.04;100696.81;5069592;28;1453;-55
2022/04/17 03:58:35;;;;;;;;;;;;;;;18.30;48.06;100690.50;5075074;28;1224;-57
2022/04/17 04:01:01;;;;;;;;;;;;;;;18.53;48.52;100693.59;5065044;28;1969;-56
2022/04/17 04:03:26;;;;;;;;;;;;;;;18.78;48.76;100696.13;5076041;28;850;-57
2022/04/17 04:05:52;;;;;;;;;;;;;;;18.74;48.22;100708.81;5075981;28;908;-56
2022/04/17 04:08:17;;;;;;;;;;;;;;;17.35;50.00;100708.84;5057883;28;842;-56
2022/04/17 04:10:43;;;;;;;;;;;;;;;17.44;47.14;100713.50;5075035;28;1425;-56
2022/04/17 04:13:08;;;;;;;;;;;;;;;17.43;44.85;100722.88;5068725;28;829;-56
2022/04/17 04:15:34;;;;;;;;;;;;;;;17.21;42.78;100705.91;5075537;28;914;-56
2022/04/17 04:17:59;;;;;;;;;;;;;;;16.97;41.40;100713.91;5075614;28;1090;-57
2022/04/17 04:20:25;;;;;;;;;;;;;;;16.87;40.41;100721.06;5075797;28;1905;-55
2022/04/17 04:22:51;;;;;;;;;;;;;;;16.72;39.97;100735.63;5076125;28;734;-58
2022/04/17 04:25:16;;;;;;;;;;;;;;;16.79;40.15;100726.25;5072178;28;896;-57
2022/04/17 04:30:25;;;;;;;;;;;;;;;16.99;42.36;100715.28;5075286;28;851;-56
2022/04/17 04:32:52;;;;;;;;;;;;;;;17.13;43.44;100739.44;5075938;28;754;-56
2022/04/17 04:35:18;;;;;;;;;;;;;;;17.22;44.09;100719.38;5071675;28;1285;-54
2022/04/17 04:37:44;;;;;;;;;;;;;;;17.30;45.01;100728.94;5066281;28;1164;-55
2022/04/17 04:40:10;;;;;;;;;;;;;;;17.40;45.34;100736.34;5065376;28;1072;-56
2022/04/17 04:42:35;;;;;;;;;;;;;;;17.49;45.50;100725.56;5071765;28;1988;-56
2022/04/17 04:47:45;;;;;;;;;;;;;;;17.63;45.70;100745.88;5071901;28;1299;-56
2022/04/17 04:50:10;;;;;;;;;;;;;;;17.66;45.55;100745.31;5075787;28;881;-57
2022/04/17 04:52:36;;;;;;;;;;;;;;;17.66;45.45;100748.06;5072729;28;879;-55
2022/04/17 04:55:02;;;;;;;;;;;;;;;17.69;45.38;100755.75;5078322;28;905;-55
2022/04/17 04:57:27;;;;;;;;;;;;;;;17.71;45.26;100741.72;5079558;28;838;-55
2022/04/17 04:59:53;;;;;;;;;;;;;;;17.68;45.67;100740.34;5078946;28;873;-55
2022/04/17 05:02:19;;;;;;;;;;;;;;;17.81;45.27;100754.59;5075529;28;1914;-55
2022/04/17 05:04:44;;;;;;;;;;;;;;;17.86;45.13;100751.81;5073437;28;847;-55
2022/04/17 05:07:10;;;;;;;;;;;;;;;17.84;45.45;100751.25;5077552;28;1179;-55
2022/04/17 05:09:35;;;;;;;;;;;;;;;17.87;45.36;100758.97;5079209;28;806;-55
2022/04/17 05:12:01;;;;;;;;;;;;;;;17.83;45.51;100763.41;5076921;28;1056;-57
2022/04/17 05:14:29;;;;;;;;;;;;;;;17.89;45.29;100756.75;5077268;28;1079;-57
2022/04/17 05:16:54;;;;;;;;;;;;;;;17.91;45.51;100771.09;5075213;28;1203;-58
2022/04/17 05:19:20;;;;;;;;;;;;;;;17.97;45.08;100769.94;5078472;28;1392;-57
2022/04/17 05:21:51;;;;;;;;;;;;;;;17.99;45.30;100767.72;5078764;28;1906;-57
2022/04/17 05:24:17;;;;;;;;;;;;;;;17.98;45.25;100770.75;5078754;28;809;-56
2022/04/17 05:26:42;;;;;;;;;;;;;;;17.98;45.37;100776.25;5076480;28;1079;-57
2022/04/17 05:29:08;;;;;;;;;;;;;;;18.03;45.25;100774.31;5073991;28;769;-58
2022/04/17 05:31:33;;;;;;;;;;;;;;;17.98;45.11;100771.59;5074665;28;1046;-57
2022/04/17 05:33:59;;;;;;;;;;;;;;;18.01;44.94;100770.22;5060772;28;1170;-56
2022/04/17 05:36:24;;;;;;;;;;;;;;;18.02;44.97;100763.59;5078536;28;825;-58
2022/04/17 05:38:53;;;;;;;;;;;;;;;17.94;44.83;100765.84;5078444;28;853;-59
2022/04/17 05:41:19;;;;;;;;;;;;;;;17.97;44.85;100764.44;5077812;28;1976;-58
2022/04/17 05:43:44;;;;;;;;;;;;;;;18.01;45.08;100754.53;5078035;28;822;-58
2022/04/17 05:46:10;;;;;;;;;;;;;;;18.02;44.79;100771.84;5070467;28;1418;-58
2022/04/17 05:48:35;;;;;;;;;;;;;;;18.06;44.74;100773.75;5070426;28;1492;-59
2022/04/17 05:51:01;;;;;;;;;;;;;;;18.01;44.83;100754.53;5076790;28;1382;-57
2022/04/17 05:53:26;;;;;;;;;;;;;;;17.94;44.56;100768.59;5059767;28;1255;-55
2022/04/17 05:55:52;;;;;;;;;;;;;;;18.02;44.56;100763.59;5073626;28;1271;-58
2022/04/17 05:58:17;;;;;;;;;;;;;;;17.99;44.43;100769.66;5078002;28;1204;-57
2022/04/17 06:00:44;;;;;;;;;;;;;;;17.94;44.49;100760.31;5074433;28;1980;-57
2022/04/17 06:03:10;;;;;;;;;;;;;;;17.93;44.34;100750.41;5077720;28;777;-57
2022/04/17 06:05:36;;;;;;;;;;;;;;;17.98;44.50;100760.59;5078104;28;853;-59
2022/04/17 06:08:01;;;;;;;;;;;;;;;18.01;44.12;100771.03;5076980;28;1211;-58
2022/04/17 06:10:26;;;;;;;;;;;;;;;18.00;44.45;100771.31;5073756;28;1253;-57
2022/04/17 06:12:52;;;;;;;;;;;;;;;18.01;44.33;100775.72;5078231;28;777;-57
2022/04/17 06:15:17;;;;;;;;;;;;;;;17.97;44.07;100767.19;5076159;28;828;-58
2022/04/17 06:17:43;;;;;;;;;;;;;;;17.97;44.00;100775.44;5077746;28;1145;-58
2022/04/17 06:20:09;;;;;;;;;;;;;;;17.94;44.11;100770.53;5074311;28;746;-59
2022/04/17 06:22:35;;;;;;;;;;;;;;;18.00;43.92;100761.13;5059767;28;1963;-58
2022/04/17 06:25:05;;;;;;;;;;;;;;;17.93;44.18;100736.66;5077955;28;820;-57
2022/04/17 06:27:39;;;;;;;;;;;;;;;17.95;43.98;100736.41;5077838;28;1182;-58
2022/04/17 06:30:15;;;;;;;;;;;;;;;17.94;43.98;100743.81;5075794;28;1468;-57
2022/04/17 06:32:41;;;;;;;;;;;;;;;17.93;43.82;100742.16;5052583;28;1418;-57
2022/04/17 06:35:07;;;;;;;;;;;;;;;17.93;43.92;100753.19;5074409;28;798;-57
2022/04/17 06:37:44;;;;;;;;;;;;;;;17.89;43.91;100757.59;5077901;28;801;-57
2022/04/17 06:40:10;;;;;;;;;;;;;;;17.91;44.29;100771.91;5077853;28;719;-58
2022/04/17 06:42:35;;;;;;;;;;;;;;;17.98;44.22;100779.84;5077445;28;2062;-58
2022/04/17 06:45:01;;;;;;;;;;;;;;;17.86;44.30;100769.13;5075827;28;830;-58
2022/04/17 06:47:26;;;;;;;;;;;;;;;17.94;44.01;100779.59;5076296;28;878;-57
2022/04/17 06:49:52;;;;;;;;;;;;;;;17.95;44.17;100785.94;5059097;28;1372;-58
2022/04/17 06:52:17;;;;;;;;;;;;;;;17.92;43.96;100803.81;5077038;28;822;-57
2022/04/17 06:54:42;;;;;;;;;;;;;;;17.96;43.93;100806.81;5076990;28;834;-57
2022/04/17 06:57:08;;;;;;;;;;;;;;;17.89;44.10;100825.53;5077555;28;785;-59
2022/04/17 06:59:33;;;;;;;;;;;;;;;17.84;44.12;100831.88;5068922;28;1285;-58
2022/04/17 07:01:59;;;;;;;;;;;;;;;17.86;44.02;100851.66;5073123;28;1910;-56
2022/04/17 07:04:24;;;;;;;;;;;;;;;17.85;43.89;100872.03;5076931;28;826;-57
2022/04/17 07:06:50;;;;;;;;;;;;;;;17.77;43.83;100870.69;5077014;28;838;-56
2022/04/17 07:09:15;;;;;;;;;;;;;;;17.80;43.86;100877.53;5076892;28;830;-57
2022/04/17 07:11:40;;;;;;;;;;;;;;;17.81;43.58;100892.13;5074175;28;909;-57
2022/04/17 07:14:06;;;;;;;;;;;;;;;17.84;43.62;100891.56;5075185;28;1165;-57
2022/04/17 07:16:32;;;;;;;;;;;;;;;17.74;43.58;100898.75;5068343;28;1416;-57
2022/04/17 07:18:58;;;;;;;;;;;;;;;17.77;43.77;100903.69;5076751;28;787;-57
2022/04/17 07:21:23;;;;;;;;;;;;;;;17.75;43.71;100916.91;5076898;28;1905;-56
2022/04/17 07:23:48;;;;;;;;;;;;;;;17.72;43.45;100911.94;5072913;28;785;-56
2022/04/17 07:26:14;;;;;;;;;;;;;;;17.67;43.78;100917.47;5071743;28;1257;-56
2022/04/17 07:28:39;;;;;;;;;;;;;;;17.65;43.32;100916.91;5056698;28;1167;-56
2022/04/17 07:31:05;;;;;;;;;;;;;;;17.62;43.34;100926.53;5075347;28;818;-56
2022/04/17 07:33:30;;;;;;;;;;;;;;;17.65;43.51;100933.41;5076528;28;869;-56
2022/04/17 07:35:56;;;;;;;;;;;;;;;17.65;43.27;100927.09;5076674;28;812;-56
2022/04/17 07:38:21;;;;;;;;;;;;;;;17.59;43.43;100940.84;5075459;28;1227;-56
2022/04/17 07:40:47;;;;;;;;;;;;;;;17.66;43.15;100951.56;5076106;28;1963;-57
2022/04/17 07:43:13;;;;;;;;;;;;;;;17.60;43.22;100933.44;5076436;28;829;-56
2022/04/17 07:45:38;;;;;;;;;;;;;;;17.57;43.40;100936.69;5072021;28;867;-60
2022/04/17 07:48:04;;;;;;;;;;;;;;;17.62;43.33;100943.03;5076086;28;738;-59
2022/04/17 07:50:31;;;;;;;;;;;;;;;17.58;43.17;100965.84;5071732;28;825;-58
2022/04/17 07:52:56;;;;;;;;;;;;;;;17.54;43.29;100978.50;5075466;28;981;-58
2022/04/17 07:55:22;;;;;;;;;;;;;;;17.54;43.16;100964.75;5076120;28;770;-57
2022/04/17 08:00:33;;;;;;;;;;;;;;;17.49;43.00;100981.25;5073712;28;1910;-58
2022/04/17 08:03:20;;;;;;;;;;;;;;;17.52;43.02;100991.72;5075631;28;813;-58
2022/04/17 08:05:45;;;;;;;;;;;;;;;17.49;43.17;100986.75;5076026;28;929;-58
2022/04/17 08:08:11;;;;;;;;;;;;;;;17.49;43.03;100992.25;5075455;28;755;-57
2022/04/17 08:10:37;;;;;;;;;;;;;;;17.49;43.03;100989.50;5075770;28;709;-56
2022/04/17 08:13:02;;;;;;;;;;;;;;;17.43;43.11;100995.00;5074664;28;830;-57
2022/04/17 08:15:28;;;;;;;;;;;;;;;17.50;43.03;100986.50;5065359;28;1362;-57
2022/04/17 08:17:53;;;;;;;;;;;;;;;17.53;43.09;100980.44;5072749;28;1464;-57
2022/04/17 08:20:19;;;;;;;;;;;;;;;17.47;43.23;100969.72;5055715;28;1386;-57
2022/04/17 08:22:44;;;;;;;;;;;;;;;17.49;43.24;100956.50;5075455;28;1974;-56
2022/04/17 08:25:10;;;;;;;;;;;;;;;17.50;43.35;100939.75;5071436;28;1346;-56
2022/04/17 08:27:44;;;;;;;;;;;;;;;17.49;43.46;100924.34;5054741;28;1032;-56
2022/04/17 08:30:09;;;;;;;;;;;;;;;17.57;43.44;100931.19;5074043;28;1187;-56
2022/04/17 08:32:35;;;;;;;;;;;;;;;17.52;43.46;100911.97;5075539;28;786;-57
2022/04/17 08:35:00;;;;;;;;;;;;;;;17.49;43.58;100890.53;5077670;28;1161;-56
2022/04/17 08:37:25;;;;;;;;;;;;;;;17.55;43.55;100875.69;5079848;28;806;-57
2022/04/17 08:39:51;;;;;;;;;;;;;;;17.62;43.58;100860.53;5079665;28;818;-56
2022/04/17 08:42:16;;;;;;;;;;;;;;;17.61;43.99;100836.06;5077547;28;1902;-56
2022/04/17 08:44:42;;;;;;;;;;;;;;;17.63;43.99;100833.88;5060601;28;880;-56
2022/04/17 08:47:07;;;;;;;;;;;;;;;17.66;43.86;100830.56;5076203;28;851;-59
2022/04/17 08:49:33;;;;;;;;;;;;;;;17.67;44.17;100810.22;5078735;28;774;-58
2022/04/17 08:51:59;;;;;;;;;;;;;;;17.70;44.07;100806.91;5061062;28;992;-58
2022/04/17 08:54:24;;;;;;;;;;;;;;;17.72;44.29;100799.19;5077406;28;789;-57
2022/04/17 08:56:50;;;;;;;;;;;;;;;17.74;44.27;100809.88;5077733;28;908;-57
2022/04/17 08:59:15;;;;;;;;;;;;;;;17.71;44.39;100813.22;5059308;28;1409;-59
2022/04/17 09:01:41;;;;;;;;;;;;;;;17.75;44.23;100817.03;5077108;28;1902;-58
2022/04/17 09:04:06;;;;;;;;;;;;;;;17.73;44.22;100841.28;5074201;28;1379;-58
2022/04/17 09:06:31;;;;;;;;;;;;;;;17.73;44.17;100841.28;5056878;28;1466;-57
2022/04/17 09:08:57;;;;;;;;;;;;;;;17.73;43.86;100846.78;5060534;28;1363;-57
2022/04/17 09:11:29;;;;;;;;;;;;;;;17.70;44.08;100867.41;5077139;28;1354;-57
2022/04/17 09:13:55;;;;;;;;;;;;;;;17.67;44.09;100845.13;5072256;28;1374;-57
2022/04/17 09:16:27;;;;;;;;;;;;;;;17.74;43.69;100841.00;5073240;28;1221;-58
2022/04/17 09:18:53;;;;;;;;;;;;;;;17.73;43.77;100846.78;5066589;28;911;-58
2022/04/17 09:21:35;;;;;;;;;;;;;;;17.75;43.96;100833.53;5078459;28;1901;-58
2022/04/17 09:24:15;;;;;;;;;;;;;;;17.73;44.07;100820.06;5066693;28;803;-58
2022/04/17 09:26:48;;;;;;;;;;;;;;;17.73;44.18;100820.06;5071970;28;1008;-57
2022/04/17 09:29:18;;;;;;;;;;;;;;;17.76;44.18;100789.25;5077025;28;1441;-57
2022/04/17 09:31:43;;;;;;;;;;;;;;;17.81;44.07;100795.84;5075769;28;875;-57
2022/04/17 09:34:09;;;;;;;;;;;;;;;17.81;44.00;100795.84;5078466;28;845;-57
2022/04/17 09:36:37;;;;;;;;;;;;;;;17.81;43.85;100796.69;5078735;28;857;-57
2022/04/17 09:39:15;;;;;;;;;;;;;;;17.81;44.01;100804.09;5060465;28;1532;-57
2022/04/17 09:41:59;;;;;;;;;;;;;;;17.72;44.35;100793.69;5076235;28;1972;-57
2022/04/17 09:44:34;;;;;;;;;;;;;;;17.83;44.19;100791.72;5066066;28;1216;-56
2022/04/17 09:47:00;;;;;;;;;;;;;;;17.83;44.18;100796.41;5073277;28;1236;-58
2022/04/17 09:49:25;;;;;;;;;;;;;;;17.84;44.09;100789.78;5074439;28;1211;-58
2022/04/17 09:52:04;;;;;;;;;;;;;;;17.84;44.18;100803.53;5076989;28;1296;-58
2022/04/17 09:54:30;;;;;;;;;;;;;;;17.84;44.17;100811.78;5076532;28;1155;-58
2022/04/17 09:56:55;;;;;;;;;;;;;;;17.82;43.95;100801.06;5056951;28;1213;-58
2022/04/17 09:59:22;;;;;;;;;;;;;;;17.82;44.06;100803.00;5076887;28;1258;-58
2022/04/17 10:01:49;;;;;;;;;;;;;;;17.85;43.96;100800.53;5077246;28;1973;-58
2022/04/17 10:04:16;;;;;;;;;;;;;;;17.85;44.16;100808.78;5077668;28;1292;-58
2022/04/17 10:06:42;;;;;;;;;;;;;;;17.84;44.15;100795.28;5078200;28;746;-57
2022/04/17 10:09:08;;;;;;;;;;;;;;;17.82;44.54;100786.50;5077816;28;830;-58
2022/04/17 10:11:34;;;;;;;;;;;;;;;17.88;44.18;100788.94;5055487;28;903;-57
2022/04/17 10:14:00;;;;;;;;;;;;;;;17.85;44.41;100803.28;5060025;28;1081;-57
2022/04/17 10:16:25;;;;;;;;;;;;;;;17.85;44.28;100784.03;5051703;28;1251;-58
2022/04/17 10:18:51;;;;;;;;;;;;;;;17.86;44.51;100801.34;5054934;28;1331;-56
2022/04/17 10:21:16;;;;;;;;;;;;;;;17.88;44.25;100783.44;5055394;28;1961;-56
2022/04/17 10:23:45;;;;;;;;;;;;;;;17.88;44.29;100766.09;5052918;28;778;-57
2022/04/17 10:26:12;;;;;;;;;;;;;;;17.82;44.53;100767.25;5058518;28;962;-57
2022/04/17 10:28:39;;;;;;;;;;;;;;;17.89;44.28;100778.75;5077025;28;826;-57
2022/04/17 10:31:08;;;;;;;;;;;;;;;17.81;44.43;100755.44;5073908;28;816;-57
2022/04/17 10:33:53;;;;;;;;;;;;;;;17.81;44.21;100758.19;5077302;28;878;-57
2022/04/17 10:36:27;;;;;;;;;;;;;;;17.81;44.44;100758.19;5018606;28;1323;-58
2022/04/17 10:39:12;;;;;;;;;;;;;;;17.79;44.38;100746.63;5075305;28;1413;-56
2022/04/17 10:41:38;;;;;;;;;;;;;;;17.79;44.52;100744.72;5071763;28;1971;-57
2022/04/17 10:44:04;;;;;;;;;;;;;;;17.83;44.13;100749.66;5074566;28;1258;-57
2022/04/17 10:46:29;;;;;;;;;;;;;;;17.76;44.00;100747.19;5072821;28;1263;-56
2022/04/17 10:48:56;;;;;;;;;;;;;;;17.73;44.12;100742.25;5054078;28;1296;-57
2022/04/17 10:51:29;;;;;;;;;;;;;;;17.74;44.00;100744.72;5075799;28;814;-58
2022/04/17 10:54:04;;;;;;;;;;;;;;;17.73;44.24;100729.31;5077239;28;805;-57
2022/04/17 10:56:30;;;;;;;;;;;;;;;17.69;43.99;100731.00;5076034;28;1452;-58
2022/04/17 10:58:56;;;;;;;;;;;;;;;17.73;44.12;100748.56;5077002;28;753;-58
2022/04/17 11:01:40;;;;;;;;;;;;;;;17.71;44.05;100755.47;5070855;28;1914;-58
2022/04/17 11:04:24;;;;;;;;;;;;;;;17.70;43.99;100745.59;5076952;28;838;-58
2022/04/17 11:07:05;;;;;;;;;;;;;;;17.64;43.92;100732.94;5076875;28;807;-58
2022/04/17 11:09:31;;;;;;;;;;;;;;;17.66;43.93;100747.25;5076846;28;913;-57
2022/04/17 11:12:05;;;;;;;;;;;;;;;17.61;44.06;100748.06;5076887;28;780;-58
2022/04/17 11:14:30;;;;;;;;;;;;;;;17.62;43.88;100742.28;5071568;28;806;-58
2022/04/17 11:16:56;;;;;;;;;;;;;;;17.61;43.86;100734.31;5052632;28;1362;-57
2022/04/17 11:19:23;;;;;;;;;;;;;;;17.59;43.86;100742.84;5056688;28;1434;-56
2022/04/17 11:21:52;;;;;;;;;;;;;;;17.57;43.99;100730.50;5076017;28;1906;-56
2022/04/17 11:24:17;;;;;;;;;;;;;;;17.68;43.85;100734.84;5070965;28;1429;-56
2022/04/17 11:26:55;;;;;;;;;;;;;;;17.67;43.83;100744.22;5071563;28;1028;-57
2022/04/17 11:29:33;;;;;;;;;;;;;;;17.65;43.69;100749.16;5075991;28;1370;-57
2022/04/17 11:31:58;;;;;;;;;;;;;;;17.59;44.14;100762.09;5072771;28;1323;-56
2022/04/17 11:34:24;;;;;;;;;;;;;;;17.60;43.84;100761.00;5075769;28;1413;-56
2022/04/17 11:36:49;;;;;;;;;;;;;;;17.59;43.90;100764.84;5076344;28;785;-56
2022/04/17 11:39:25;;;;;;;;;;;;;;;17.58;43.87;100754.13;5072547;28;797;-56
2022/04/17 11:41:51;;;;;;;;;;;;;;;17.56;43.80;100753.63;5053314;28;1902;-56
2022/04/17 11:44:16;;;;;;;;;;;;;;;17.52;44.02;100758.03;5058346;28;842;-56
2022/04/17 11:46:41;;;;;;;;;;;;;;;17.50;43.98;100754.72;5074938;28;1041;-56
2022/04/17 11:49:07;;;;;;;;;;;;;;;17.55;43.86;100763.75;5076492;28;810;-56
2022/04/17 11:51:41;;;;;;;;;;;;;;;17.54;43.90;100753.06;5076125;28;822;-56
2022/04/17 11:54:06;;;;;;;;;;;;;;;17.52;43.95;100767.09;5073504;28;1603;-56
2022/04/17 11:56:51;;;;;;;;;;;;;;;17.55;43.76;100760.22;5076191;28;821;-57
2022/04/17 11:59:17;;;;;;;;;;;;;;;17.56;44.10;100762.69;5076293;28;923;-56
2022/04/17 12:01:42;;;;;;;;;;;;;;;17.52;43.67;100763.53;5074847;28;1905;-56
2022/04/17 12:04:08;;;;;;;;;;;;;;;17.52;43.77;100758.03;5075697;28;746;-56
2022/04/17 12:06:34;;;;;;;;;;;;;;;17.52;43.55;100756.09;5054692;28;1456;-57
2022/04/17 12:09:01;;;;;;;;;;;;;;;17.49;43.51;100769.56;5056697;28;1271;-56
2022/04/17 12:11:26;;;;;;;;;;;;;;;17.41;43.41;100766.28;5076070;28;828;-56
2022/04/17 12:13:55;;;;;;;;;;;;;;;17.40;43.70;100766.56;5076526;28;866;-56
2022/04/17 12:16:20;;;;;;;;;;;;;;;17.41;43.38;100771.78;5074679;28;1079;-57
2022/04/17 12:18:55;;;;;;;;;;;;;;;17.35;43.52;100777.56;5057386;28;841;-56
2022/04/17 12:21:26;;;;;;;;;;;;;;;17.38;43.58;100779.78;5074219;28;1909;-56
2022/04/17 12:23:53;;;;;;;;;;;;;;;17.40;43.47;100767.41;5068446;28;1457;-57
2022/04/17 12:26:19;;;;;;;;;;;;;;;17.37;43.45;100784.44;5069431;28;1149;-57
2022/04/17 12:28:44;;;;;;;;;;;;;;;17.39;43.63;100781.41;5056271;28;775;-58
2022/04/17 12:31:12;;;;;;;;;;;;;;;17.33;43.69;100775.09;5054443;28;1414;-58
2022/04/17 12:33:38;;;;;;;;;;;;;;;17.29;43.58;100776.75;5057592;28;999;-59
2022/04/17 12:36:07;;;;;;;;;;;;;;;17.39;43.65;100773.16;5057635;28;884;-59
2022/04/17 12:38:33;;;;;;;;;;;;;;;17.26;43.59;100769.06;5075738;28;798;-59
2022/04/17 12:41:00;;;;;;;;;;;;;;;17.32;43.61;100759.72;5057983;28;1926;-59
2022/04/17 12:43:30;;;;;;;;;;;;;;;17.35;43.45;100759.16;5074916;28;946;-58
2022/04/17 12:45:58;;;;;;;;;;;;;;;17.31;43.46;100744.34;5056431;28;1061;-57
2022/04/17 12:48:27;;;;;;;;;;;;;;;17.37;43.51;100745.97;5075736;28;814;-57
2022/04/17 12:51:19;;;;;;;;;;;;;;;17.35;43.68;100737.19;5074950;28;873;-57
2022/04/17 12:53:44;;;;;;;;;;;;;;;17.37;43.78;100734.97;5069840;28;1255;-59
2022/04/17 12:56:10;;;;;;;;;;;;;;;17.37;43.79;100721.22;5056582;28;871;-57
2022/04/17 12:58:46;;;;;;;;;;;;;;;17.35;43.79;100728.94;5075495;28;830;-57
2022/04/17 13:01:17;;;;;;;;;;;;;;;17.40;44.02;100719.84;5074397;28;1906;-56
2022/04/17 13:03:42;;;;;;;;;;;;;;;17.36;43.97;100716.00;5075909;28;770;-57
2022/04/17 13:06:09;;;;;;;;;;;;;;;17.40;43.87;100723.44;5075187;28;1472;-58
2022/04/17 13:08:35;;;;;;;;;;;;;;;17.40;44.00;100712.44;5071523;28;1216;-59
2022/04/17 13:11:00;;;;;;;;;;;;;;;17.38;43.70;100705.56;5075156;28;822;-58